sensor_id;sensor_type;location;lat;lon;timestamp;P1;durP1;ratioP1;P2;durP2;ratioP2
76138;SDS011;65138;50.946;7.074;2023-02-01T00:01:23;1.98;;;0.70;;
76138;SDS011;65138;50.946;7.074;2023-02-01T00:03:49;2.00;;;0.82;;
76138;SDS011;65138;50.946;7.074;2023-02-01T00:06:15;2.95;;;1.05;;
76138;SDS011;65138;50.946;7.074;2023-02-01T00:08:40;2.35;;;0.73;;
76138;SDS011;65138;50.946;7.074;2023-02-01T00:11:07;1.65;;;0.68;;
76138;SDS011;65138;50.946;7.074;2023-02-01T00:13:37;3.15;;;1.13;;
76138;SDS011;65138;50.946;7.074;2023-02-01T00:18:47;2.67;;;0.50;;
76138;SDS011;65138;50.946;7.074;2023-02-01T00:23:42;3.13;;;0.40;;
76138;SDS011;65138;50.946;7.074;2023-02-01T00:26:10;2.97;;;0.55;;
76138;SDS011;65138;50.946;7.074;2023-02-01T00:28:40;2.58;;;0.32;;
76138;SDS011;65138;50.946;7.074;2023-02-01T00:31:06;3.45;;;0.75;;
76138;SDS011;65138;50.946;7.074;2023-02-01T00:33:32;1.98;;;0.52;;
76138;SDS011;65138;50.946;7.074;2023-02-01T00:36:00;1.83;;;0.55;;
76138;SDS011;65138;50.946;7.074;2023-02-01T00:38:27;2.97;;;0.60;;
76138;SDS011;65138;50.946;7.074;2023-02-01T00:40:54;1.35;;;0.60;;
76138;SDS011;65138;50.946;7.074;2023-02-01T00:43:26;1.95;;;0.43;;
76138;SDS011;65138;50.946;7.074;2023-02-01T00:45:52;1.63;;;0.47;;
76138;SDS011;65138;50.946;7.074;2023-02-01T00:48:17;2.38;;;0.60;;
76138;SDS011;65138;50.946;7.074;2023-02-01T00:50:43;2.38;;;0.47;;
76138;SDS011;65138;50.946;7.074;2023-02-01T00:53:10;2.00;;;0.52;;
76138;SDS011;65138;50.946;7.074;2023-02-01T00:55:36;2.67;;;0.73;;
76138;SDS011;65138;50.946;7.074;2023-02-01T00:58:02;2.03;;;0.50;;
76138;SDS011;65138;50.946;7.074;2023-02-01T01:00:30;1.80;;;0.73;;
76138;SDS011;65138;50.946;7.074;2023-02-01T01:02:59;1.73;;;0.50;;
76138;SDS011;65138;50.946;7.074;2023-02-01T01:05:24;3.63;;;0.82;;
76138;SDS011;65138;50.946;7.074;2023-02-01T01:07:52;2.25;;;0.80;;
76138;SDS011;65138;50.946;7.074;2023-02-01T01:10:18;1.65;;;0.50;;
76138;SDS011;65138;50.946;7.074;2023-02-01T01:12:44;0.95;;;0.22;;
76138;SDS011;65138;50.946;7.074;2023-02-01T01:15:10;3.28;;;0.93;;
76138;SDS011;65138;50.946;7.074;2023-02-01T01:17:37;1.48;;;0.52;;
76138;SDS011;65138;50.946;7.074;2023-02-01T01:20:03;1.98;;;0.35;;
76138;SDS011;65138;50.946;7.074;2023-02-01T01:22:29;2.65;;;0.50;;
76138;SDS011;65138;50.946;7.074;2023-02-01T01:24:55;2.13;;;0.47;;
76138;SDS011;65138;50.946;7.074;2023-02-01T01:27:20;3.30;;;0.60;;
76138;SDS011;65138;50.946;7.074;2023-02-01T01:29:49;3.17;;;0.73;;
76138;SDS011;65138;50.946;7.074;2023-02-01T01:32:15;2.58;;;0.68;;
76138;SDS011;65138;50.946;7.074;2023-02-01T01:34:40;3.33;;;0.57;;
76138;SDS011;65138;50.946;7.074;2023-02-01T01:37:06;2.72;;;0.70;;
76138;SDS011;65138;50.946;7.074;2023-02-01T01:39:32;1.20;;;0.40;;
76138;SDS011;65138;50.946;7.074;2023-02-01T01:41:58;1.45;;;0.50;;
76138;SDS011;65138;50.946;7.074;2023-02-01T01:47:31;3.05;;;0.47;;
76138;SDS011;65138;50.946;7.074;2023-02-01T01:50:05;2.22;;;0.60;;
76138;SDS011;65138;50.946;7.074;2023-02-01T01:52:35;2.40;;;0.70;;
76138;SDS011;65138;50.946;7.074;2023-02-01T01:55:02;3.72;;;0.52;;
76138;SDS011;65138;50.946;7.074;2023-02-01T01:57:31;2.75;;;0.70;;
76138;SDS011;65138;50.946;7.074;2023-02-01T02:00:03;3.67;;;0.82;;
76138;SDS011;65138;50.946;7.074;2023-02-01T02:02:43;2.47;;;0.70;;
76138;SDS011;65138;50.946;7.074;2023-02-01T02:05:18;2.90;;;0.52;;
76138;SDS011;65138;50.946;7.074;2023-02-01T02:07:46;2.20;;;0.60;;
76138;SDS011;65138;50.946;7.074;2023-02-01T02:10:15;2.40;;;0.60;;
76138;SDS011;65138;50.946;7.074;2023-02-01T02:12:42;3.92;;;0.82;;
76138;SDS011;65138;50.946;7.074;2023-02-01T02:15:10;2.60;;;0.40;;
76138;SDS011;65138;50.946;7.074;2023-02-01T02:17:42;1.55;;;0.60;;
76138;SDS011;65138;50.946;7.074;2023-02-01T02:20:45;2.45;;;0.82;;
76138;SDS011;65138;50.946;7.074;2023-02-01T02:37:01;2.10;;;0.55;;
76138;SDS011;65138;50.946;7.074;2023-02-01T02:42:29;1.48;;;0.43;;
76138;SDS011;65138;50.946;7.074;2023-02-01T02:45:24;1.63;;;0.57;;
76138;SDS011;65138;50.946;7.074;2023-02-01T02:48:46;2.33;;;0.47;;
76138;SDS011;65138;50.946;7.074;2023-02-01T02:51:27;2.28;;;0.93;;
76138;SDS011;65138;50.946;7.074;2023-02-01T02:54:21;1.77;;;0.70;;
76138;SDS011;65138;50.946;7.074;2023-02-01T02:57:10;1.20;;;0.45;;
76138;SDS011;65138;50.946;7.074;2023-02-01T03:00:18;2.90;;;0.63;;
76138;SDS011;65138;50.946;7.074;2023-02-01T03:03:05;3.53;;;0.40;;
76138;SDS011;65138;50.946;7.074;2023-02-01T03:05:53;3.13;;;0.40;;
76138;SDS011;65138;50.946;7.074;2023-02-01T03:08:23;2.03;;;0.40;;
76138;SDS011;65138;50.946;7.074;2023-02-01T03:11:00;3.42;;;0.88;;
76138;SDS011;65138;50.946;7.074;2023-02-01T03:13:54;2.33;;;0.50;;
76138;SDS011;65138;50.946;7.074;2023-02-01T03:16:28;2.70;;;0.32;;
76138;SDS011;65138;50.946;7.074;2023-02-01T03:22:01;2.03;;;0.40;;
76138;SDS011;65138;50.946;7.074;2023-02-01T03:24:39;3.05;;;0.85;;
76138;SDS011;65138;50.946;7.074;2023-02-01T03:27:11;1.73;;;0.43;;
76138;SDS011;65138;50.946;7.074;2023-02-01T03:29:45;2.45;;;0.60;;
76138;SDS011;65138;50.946;7.074;2023-02-01T03:32:13;3.25;;;0.60;;
76138;SDS011;65138;50.946;7.074;2023-02-01T03:34:39;2.97;;;0.40;;
76138;SDS011;65138;50.946;7.074;2023-02-01T03:37:12;2.55;;;0.45;;
76138;SDS011;65138;50.946;7.074;2023-02-01T03:39:49;2.33;;;0.47;;
76138;SDS011;65138;50.946;7.074;2023-02-01T03:42:52;1.98;;;0.60;;
76138;SDS011;65138;50.946;7.074;2023-02-01T03:45:26;2.95;;;0.40;;
76138;SDS011;65138;50.946;7.074;2023-02-01T03:48:01;2.67;;;0.82;;
76138;SDS011;65138;50.946;7.074;2023-02-01T03:50:30;3.20;;;0.63;;
76138;SDS011;65138;50.946;7.074;2023-02-01T03:52:58;2.28;;;0.55;;
76138;SDS011;65138;50.946;7.074;2023-02-01T03:55:35;2.65;;;0.93;;
76138;SDS011;65138;50.946;7.074;2023-02-01T03:58:20;2.85;;;0.77;;
76138;SDS011;65138;50.946;7.074;2023-02-01T04:03:24;3.33;;;0.70;;
76138;SDS011;65138;50.946;7.074;2023-02-01T04:05:51;2.53;;;0.82;;
76138;SDS011;65138;50.946;7.074;2023-02-01T04:08:19;3.15;;;0.50;;
76138;SDS011;65138;50.946;7.074;2023-02-01T04:10:45;1.70;;;0.70;;
76138;SDS011;65138;50.946;7.074;2023-02-01T04:13:11;2.63;;;0.52;;
76138;SDS011;65138;50.946;7.074;2023-02-01T04:15:37;1.98;;;0.73;;
76138;SDS011;65138;50.946;7.074;2023-02-01T04:18:03;2.58;;;0.52;;
76138;SDS011;65138;50.946;7.074;2023-02-01T04:20:31;1.08;;;0.32;;
76138;SDS011;65138;50.946;7.074;2023-02-01T04:22:57;1.67;;;0.40;;
76138;SDS011;65138;50.946;7.074;2023-02-01T04:25:22;3.42;;;0.65;;
76138;SDS011;65138;50.946;7.074;2023-02-01T04:27:48;2.00;;;0.43;;
76138;SDS011;65138;50.946;7.074;2023-02-01T04:30:14;2.58;;;0.60;;
76138;SDS011;65138;50.946;7.074;2023-02-01T04:32:40;2.60;;;0.50;;
76138;SDS011;65138;50.946;7.074;2023-02-01T04:35:06;2.58;;;0.40;;
76138;SDS011;65138;50.946;7.074;2023-02-01T04:37:32;4.75;;;0.80;;
76138;SDS011;65138;50.946;7.074;2023-02-01T04:39:58;2.97;;;0.60;;
76138;SDS011;65138;50.946;7.074;2023-02-01T04:42:24;2.47;;;0.68;;
76138;SDS011;65138;50.946;7.074;2023-02-01T04:44:50;3.40;;;0.60;;
76138;SDS011;65138;50.946;7.074;2023-02-01T04:47:17;2.45;;;0.63;;
76138;SDS011;65138;50.946;7.074;2023-02-01T04:49:42;1.23;;;0.40;;
76138;SDS011;65138;50.946;7.074;2023-02-01T04:52:08;1.73;;;0.60;;
76138;SDS011;65138;50.946;7.074;2023-02-01T04:54:34;3.55;;;0.60;;
76138;SDS011;65138;50.946;7.074;2023-02-01T04:57:01;2.83;;;0.68;;
76138;SDS011;65138;50.946;7.074;2023-02-01T04:59:27;2.05;;;0.50;;
76138;SDS011;65138;50.946;7.074;2023-02-01T05:01:53;3.17;;;1.30;;
76138;SDS011;65138;50.946;7.074;2023-02-01T05:04:19;4.03;;;0.60;;
76138;SDS011;65138;50.946;7.074;2023-02-01T05:06:45;2.78;;;0.60;;
76138;SDS011;65138;50.946;7.074;2023-02-01T05:09:10;2.97;;;0.70;;
76138;SDS011;65138;50.946;7.074;2023-02-01T05:11:36;2.33;;;0.65;;
76138;SDS011;65138;50.946;7.074;2023-02-01T05:14:21;3.85;;;0.80;;
76138;SDS011;65138;50.946;7.074;2023-02-01T05:16:48;2.25;;;0.65;;
76138;SDS011;65138;50.946;7.074;2023-02-01T05:19:13;2.35;;;0.55;;
76138;SDS011;65138;50.946;7.074;2023-02-01T05:21:39;3.28;;;0.80;;
76138;SDS011;65138;50.946;7.074;2023-02-01T05:24:05;3.53;;;0.75;;
76138;SDS011;65138;50.946;7.074;2023-02-01T05:26:36;1.92;;;0.45;;
76138;SDS011;65138;50.946;7.074;2023-02-01T05:29:03;2.45;;;0.60;;
76138;SDS011;65138;50.946;7.074;2023-02-01T05:31:29;2.15;;;0.35;;
76138;SDS011;65138;50.946;7.074;2023-02-01T05:33:55;4.03;;;0.50;;
76138;SDS011;65138;50.946;7.074;2023-02-01T05:36:20;2.60;;;0.50;;
76138;SDS011;65138;50.946;7.074;2023-02-01T05:38:47;3.22;;;0.50;;
76138;SDS011;65138;50.946;7.074;2023-02-01T05:41:13;3.03;;;0.45;;
76138;SDS011;65138;50.946;7.074;2023-02-01T05:43:38;2.97;;;0.70;;
76138;SDS011;65138;50.946;7.074;2023-02-01T05:46:04;2.10;;;0.82;;
76138;SDS011;65138;50.946;7.074;2023-02-01T05:48:30;2.92;;;0.50;;
76138;SDS011;65138;50.946;7.074;2023-02-01T05:50:58;5.65;;;0.95;;
76138;SDS011;65138;50.946;7.074;2023-02-01T05:53:24;5.55;;;0.82;;
76138;SDS011;65138;50.946;7.074;2023-02-01T05:55:50;5.30;;;1.30;;
76138;SDS011;65138;50.946;7.074;2023-02-01T05:58:15;6.07;;;1.02;;
76138;SDS011;65138;50.946;7.074;2023-02-01T06:00:41;7.00;;;1.15;;
76138;SDS011;65138;50.946;7.074;2023-02-01T06:03:09;6.50;;;0.88;;
76138;SDS011;65138;50.946;7.074;2023-02-01T06:05:36;5.53;;;1.27;;
76138;SDS011;65138;50.946;7.074;2023-02-01T06:08:02;7.88;;;1.38;;
76138;SDS011;65138;50.946;7.074;2023-02-01T06:10:30;5.18;;;1.83;;
76138;SDS011;65138;50.946;7.074;2023-02-01T06:12:57;9.45;;;1.83;;
76138;SDS011;65138;50.946;7.074;2023-02-01T06:15:22;9.85;;;2.00;;
76138;SDS011;65138;50.946;7.074;2023-02-01T06:17:48;10.63;;;1.85;;
76138;SDS011;65138;50.946;7.074;2023-02-01T06:20:17;9.48;;;1.63;;
76138;SDS011;65138;50.946;7.074;2023-02-01T06:22:42;9.60;;;1.42;;
76138;SDS011;65138;50.946;7.074;2023-02-01T06:25:08;7.80;;;1.48;;
76138;SDS011;65138;50.946;7.074;2023-02-01T06:27:35;7.72;;;1.63;;
76138;SDS011;65138;50.946;7.074;2023-02-01T06:30:02;7.22;;;1.52;;
76138;SDS011;65138;50.946;7.074;2023-02-01T06:32:29;9.80;;;1.65;;
76138;SDS011;65138;50.946;7.074;2023-02-01T06:34:54;8.65;;;1.33;;
76138;SDS011;65138;50.946;7.074;2023-02-01T06:37:21;8.13;;;2.13;;
76138;SDS011;65138;50.946;7.074;2023-02-01T06:39:48;6.50;;;1.23;;
76138;SDS011;65138;50.946;7.074;2023-02-01T06:42:14;7.68;;;1.52;;
76138;SDS011;65138;50.946;7.074;2023-02-01T06:44:40;7.20;;;1.45;;
76138;SDS011;65138;50.946;7.074;2023-02-01T06:47:06;9.07;;;1.48;;
76138;SDS011;65138;50.946;7.074;2023-02-01T06:49:32;11.18;;;1.60;;
76138;SDS011;65138;50.946;7.074;2023-02-01T06:51:57;9.27;;;1.75;;
76138;SDS011;65138;50.946;7.074;2023-02-01T06:54:25;9.43;;;1.40;;
76138;SDS011;65138;50.946;7.074;2023-02-01T06:56:51;9.55;;;1.60;;
76138;SDS011;65138;50.946;7.074;2023-02-01T06:59:23;6.82;;;1.98;;
76138;SDS011;65138;50.946;7.074;2023-02-01T07:01:49;16.02;;;2.63;;
76138;SDS011;65138;50.946;7.074;2023-02-01T07:04:14;9.55;;;1.50;;
76138;SDS011;65138;50.946;7.074;2023-02-01T07:06:40;10.38;;;1.77;;
76138;SDS011;65138;50.946;7.074;2023-02-01T07:09:06;12.13;;;2.38;;
76138;SDS011;65138;50.946;7.074;2023-02-01T07:11:32;7.10;;;1.85;;
76138;SDS011;65138;50.946;7.074;2023-02-01T07:13:58;13.82;;;2.03;;
76138;SDS011;65138;50.946;7.074;2023-02-01T07:16:25;7.57;;;1.15;;
76138;SDS011;65138;50.946;7.074;2023-02-01T07:18:51;9.45;;;1.13;;
76138;SDS011;65138;50.946;7.074;2023-02-01T07:21:17;11.98;;;1.67;;
76138;SDS011;65138;50.946;7.074;2023-02-01T07:23:44;10.48;;;1.35;;
76138;SDS011;65138;50.946;7.074;2023-02-01T07:26:10;10.23;;;1.52;;
76138;SDS011;65138;50.946;7.074;2023-02-01T07:28:38;7.72;;;1.63;;
76138;SDS011;65138;50.946;7.074;2023-02-01T07:33:29;6.00;;;1.30;;
76138;SDS011;65138;50.946;7.074;2023-02-01T07:35:55;6.43;;;0.98;;
76138;SDS011;65138;50.946;7.074;2023-02-01T07:38:21;8.77;;;1.35;;
76138;SDS011;65138;50.946;7.074;2023-02-01T07:40:48;10.80;;;1.70;;
76138;SDS011;65138;50.946;7.074;2023-02-01T07:43:14;7.63;;;1.77;;
76138;SDS011;65138;50.946;7.074;2023-02-01T07:45:40;7.95;;;1.55;;
76138;SDS011;65138;50.946;7.074;2023-02-01T07:48:06;6.80;;;1.13;;
76138;SDS011;65138;50.946;7.074;2023-02-01T07:50:32;8.07;;;1.15;;
76138;SDS011;65138;50.946;7.074;2023-02-01T07:52:58;3.72;;;1.10;;
76138;SDS011;65138;50.946;7.074;2023-02-01T07:55:25;7.57;;;1.10;;
76138;SDS011;65138;50.946;7.074;2023-02-01T07:57:51;3.83;;;0.80;;
76138;SDS011;65138;50.946;7.074;2023-02-01T08:00:17;4.50;;;0.70;;
76138;SDS011;65138;50.946;7.074;2023-02-01T08:03:03;8.20;;;1.63;;
76138;SDS011;65138;50.946;7.074;2023-02-01T08:05:29;5.68;;;1.02;;
76138;SDS011;65138;50.946;7.074;2023-02-01T08:07:55;7.20;;;1.20;;
76138;SDS011;65138;50.946;7.074;2023-02-01T08:10:21;5.18;;;1.08;;
76138;SDS011;65138;50.946;7.074;2023-02-01T08:12:47;4.32;;;0.68;;
76138;SDS011;65138;50.946;7.074;2023-02-01T08:15:17;5.22;;;0.93;;
76138;SDS011;65138;50.946;7.074;2023-02-01T08:17:49;6.60;;;1.35;;
76138;SDS011;65138;50.946;7.074;2023-02-01T08:20:16;5.05;;;1.27;;
76138;SDS011;65138;50.946;7.074;2023-02-01T08:22:43;5.13;;;0.98;;
76138;SDS011;65138;50.946;7.074;2023-02-01T08:25:08;3.55;;;1.00;;
76138;SDS011;65138;50.946;7.074;2023-02-01T08:27:34;5.13;;;0.85;;
76138;SDS011;65138;50.946;7.074;2023-02-01T08:30:00;4.70;;;0.70;;
76138;SDS011;65138;50.946;7.074;2023-02-01T08:32:26;4.13;;;1.05;;
76138;SDS011;65138;50.946;7.074;2023-02-01T08:34:52;4.55;;;1.02;;
76138;SDS011;65138;50.946;7.074;2023-02-01T08:37:18;3.67;;;0.60;;
76138;SDS011;65138;50.946;7.074;2023-02-01T08:39:44;4.50;;;0.80;;
76138;SDS011;65138;50.946;7.074;2023-02-01T08:42:10;6.80;;;0.80;;
76138;SDS011;65138;50.946;7.074;2023-02-01T08:44:56;4.68;;;0.57;;
76138;SDS011;65138;50.946;7.074;2023-02-01T08:47:22;6.50;;;0.68;;
76138;SDS011;65138;50.946;7.074;2023-02-01T08:49:48;3.67;;;1.10;;
76138;SDS011;65138;50.946;7.074;2023-02-01T08:52:14;5.78;;;1.05;;
76138;SDS011;65138;50.946;7.074;2023-02-01T08:54:39;3.05;;;0.70;;
76138;SDS011;65138;50.946;7.074;2023-02-01T08:57:07;3.05;;;0.68;;
76138;SDS011;65138;50.946;7.074;2023-02-01T08:59:32;4.43;;;1.10;;
76138;SDS011;65138;50.946;7.074;2023-02-01T09:01:59;3.72;;;0.98;;
76138;SDS011;65138;50.946;7.074;2023-02-01T09:04:25;5.20;;;1.23;;
76138;SDS011;65138;50.946;7.074;2023-02-01T09:06:51;5.70;;;0.82;;
76138;SDS011;65138;50.946;7.074;2023-02-01T09:09:16;3.33;;;0.80;;
76138;SDS011;65138;50.946;7.074;2023-02-01T09:11:43;4.32;;;1.02;;
76138;SDS011;65138;50.946;7.074;2023-02-01T09:14:09;6.13;;;0.82;;
76138;SDS011;65138;50.946;7.074;2023-02-01T09:16:34;3.63;;;0.75;;
76138;SDS011;65138;50.946;7.074;2023-02-01T09:19:01;4.18;;;1.00;;
76138;SDS011;65138;50.946;7.074;2023-02-01T09:21:27;3.97;;;1.05;;
76138;SDS011;65138;50.946;7.074;2023-02-01T09:23:53;4.45;;;0.77;;
76138;SDS011;65138;50.946;7.074;2023-02-01T09:26:19;4.20;;;0.63;;
76138;SDS011;65138;50.946;7.074;2023-02-01T09:28:44;4.45;;;0.95;;
76138;SDS011;65138;50.946;7.074;2023-02-01T09:31:10;4.97;;;1.02;;
76138;SDS011;65138;50.946;7.074;2023-02-01T09:33:35;3.35;;;0.82;;
76138;SDS011;65138;50.946;7.074;2023-02-01T09:36:02;3.63;;;0.73;;
76138;SDS011;65138;50.946;7.074;2023-02-01T09:38:30;5.57;;;0.73;;
76138;SDS011;65138;50.946;7.074;2023-02-01T09:40:56;5.35;;;0.80;;
76138;SDS011;65138;50.946;7.074;2023-02-01T09:43:37;6.90;;;0.85;;
76138;SDS011;65138;50.946;7.074;2023-02-01T09:46:21;4.50;;;1.05;;
76138;SDS011;65138;50.946;7.074;2023-02-01T09:48:52;5.28;;;1.38;;
76138;SDS011;65138;50.946;7.074;2023-02-01T09:51:24;4.80;;;1.40;;
76138;SDS011;65138;50.946;7.074;2023-02-01T09:59:34;5.30;;;1.00;;
76138;SDS011;65138;50.946;7.074;2023-02-01T10:02:10;5.32;;;0.95;;
76138;SDS011;65138;50.946;7.074;2023-02-01T10:04:47;5.18;;;1.08;;
76138;SDS011;65138;50.946;7.074;2023-02-01T10:07:37;5.30;;;0.85;;
76138;SDS011;65138;50.946;7.074;2023-02-01T10:10:12;4.35;;;0.98;;
76138;SDS011;65138;50.946;7.074;2023-02-01T10:13:01;5.88;;;0.90;;
76138;SDS011;65138;50.946;7.074;2023-02-01T10:26:56;4.50;;;0.65;;
76138;SDS011;65138;50.946;7.074;2023-02-01T10:29:30;3.50;;;0.70;;
76138;SDS011;65138;50.946;7.074;2023-02-01T10:32:02;3.58;;;0.98;;
76138;SDS011;65138;50.946;7.074;2023-02-01T10:34:30;4.30;;;0.95;;
76138;SDS011;65138;50.946;7.074;2023-02-01T10:37:22;6.25;;;0.93;;
76138;SDS011;65138;50.946;7.074;2023-02-01T10:39:55;4.75;;;1.08;;
76138;SDS011;65138;50.946;7.074;2023-02-01T10:42:28;4.00;;;0.57;;
76138;SDS011;65138;50.946;7.074;2023-02-01T10:44:56;5.63;;;0.90;;
76138;SDS011;65138;50.946;7.074;2023-02-01T10:47:25;4.28;;;0.80;;
76138;SDS011;65138;50.946;7.074;2023-02-01T10:49:54;3.08;;;0.80;;
76138;SDS011;65138;50.946;7.074;2023-02-01T10:52:32;8.48;;;0.98;;
76138;SDS011;65138;50.946;7.074;2023-02-01T10:57:58;3.95;;;0.93;;
76138;SDS011;65138;50.946;7.074;2023-02-01T11:00:34;5.75;;;1.17;;
76138;SDS011;65138;50.946;7.074;2023-02-01T11:06:10;6.10;;;1.05;;
76138;SDS011;65138;50.946;7.074;2023-02-01T11:09:00;5.93;;;1.00;;
76138;SDS011;65138;50.946;7.074;2023-02-01T11:11:32;4.68;;;0.95;;
76138;SDS011;65138;50.946;7.074;2023-02-01T11:14:18;2.88;;;0.52;;
76138;SDS011;65138;50.946;7.074;2023-02-01T11:16:48;6.13;;;1.25;;
76138;SDS011;65138;50.946;7.074;2023-02-01T11:19:18;4.50;;;0.70;;
76138;SDS011;65138;50.946;7.074;2023-02-01T11:21:44;8.07;;;1.35;;
76138;SDS011;65138;50.946;7.074;2023-02-01T11:24:21;3.65;;;0.73;;
76138;SDS011;65138;50.946;7.074;2023-02-01T11:26:56;4.47;;;0.55;;
76138;SDS011;65138;50.946;7.074;2023-02-01T11:29:24;3.50;;;0.98;;
76138;SDS011;65138;50.946;7.074;2023-02-01T11:31:58;4.47;;;0.65;;
76138;SDS011;65138;50.946;7.074;2023-02-01T11:34:26;4.47;;;0.95;;
76138;SDS011;65138;50.946;7.074;2023-02-01T11:37:00;5.68;;;0.85;;
76138;SDS011;65138;50.946;7.074;2023-02-01T11:39:34;5.97;;;1.10;;
76138;SDS011;65138;50.946;7.074;2023-02-01T11:49:51;2.90;;;0.70;;
76138;SDS011;65138;50.946;7.074;2023-02-01T12:03:21;3.13;;;0.52;;
76138;SDS011;65138;50.946;7.074;2023-02-01T12:06:11;3.78;;;0.73;;
76138;SDS011;65138;50.946;7.074;2023-02-01T12:11:31;4.03;;;1.10;;
76138;SDS011;65138;50.946;7.074;2023-02-01T12:14:23;5.43;;;0.93;;
76138;SDS011;65138;50.946;7.074;2023-02-01T12:22:34;3.92;;;0.70;;
76138;SDS011;65138;50.946;7.074;2023-02-01T12:25:18;4.30;;;1.23;;
76138;SDS011;65138;50.946;7.074;2023-02-01T12:28:02;5.10;;;0.90;;
76138;SDS011;65138;50.946;7.074;2023-02-01T12:31:01;2.58;;;0.90;;
76138;SDS011;65138;50.946;7.074;2023-02-01T12:34:00;4.03;;;1.00;;
76138;SDS011;65138;50.946;7.074;2023-02-01T12:36:57;4.20;;;0.50;;
76138;SDS011;65138;50.946;7.074;2023-02-01T12:39:53;3.10;;;0.47;;
76138;SDS011;65138;50.946;7.074;2023-02-01T12:42:45;5.07;;;1.33;;
76138;SDS011;65138;50.946;7.074;2023-02-01T12:48:13;4.13;;;0.70;;
76138;SDS011;65138;50.946;7.074;2023-02-01T12:51:29;7.05;;;0.80;;
76138;SDS011;65138;50.946;7.074;2023-02-01T12:56:38;3.38;;;0.50;;
76138;SDS011;65138;50.946;7.074;2023-02-01T12:59:19;2.63;;;0.50;;
76138;SDS011;65138;50.946;7.074;2023-02-01T13:01:46;4.78;;;1.00;;
76138;SDS011;65138;50.946;7.074;2023-02-01T13:04:35;2.00;;;0.40;;
76138;SDS011;65138;50.946;7.074;2023-02-01T13:07:19;3.70;;;0.73;;
76138;SDS011;65138;50.946;7.074;2023-02-01T13:09:51;3.05;;;0.65;;
76138;SDS011;65138;50.946;7.074;2023-02-01T13:12:25;3.45;;;1.15;;
76138;SDS011;65138;50.946;7.074;2023-02-01T13:15:17;4.20;;;1.13;;
76138;SDS011;65138;50.946;7.074;2023-02-01T13:17:48;4.53;;;0.60;;
76138;SDS011;65138;50.946;7.074;2023-02-01T13:23:05;5.10;;;1.10;;
76138;SDS011;65138;50.946;7.074;2023-02-01T13:28:11;6.03;;;0.85;;
76138;SDS011;65138;50.946;7.074;2023-02-01T13:36:59;5.70;;;0.88;;
76138;SDS011;65138;50.946;7.074;2023-02-01T13:42:14;5.22;;;0.68;;
76138;SDS011;65138;50.946;7.074;2023-02-01T13:44:46;4.82;;;0.77;;
76138;SDS011;65138;50.946;7.074;2023-02-01T13:49:52;4.90;;;0.93;;
76138;SDS011;65138;50.946;7.074;2023-02-01T13:52:25;6.25;;;1.30;;
76138;SDS011;65138;50.946;7.074;2023-02-01T13:55:03;8.43;;;1.52;;
76138;SDS011;65138;50.946;7.074;2023-02-01T13:57:45;7.82;;;1.10;;
76138;SDS011;65138;50.946;7.074;2023-02-01T14:00:23;8.40;;;1.30;;
76138;SDS011;65138;50.946;7.074;2023-02-01T14:03:10;5.47;;;1.33;;
76138;SDS011;65138;50.946;7.074;2023-02-01T14:24:00;6.03;;;0.73;;
76138;SDS011;65138;50.946;7.074;2023-02-01T14:34:52;4.93;;;0.47;;
76138;SDS011;65138;50.946;7.074;2023-02-01T14:42:44;5.97;;;0.82;;
76138;SDS011;65138;50.946;7.074;2023-02-01T14:47:44;6.30;;;0.93;;
76138;SDS011;65138;50.946;7.074;2023-02-01T15:01:22;7.68;;;0.85;;
76138;SDS011;65138;50.946;7.074;2023-02-01T15:03:53;6.40;;;1.10;;
76138;SDS011;65138;50.946;7.074;2023-02-01T15:09:09;9.52;;;1.13;;
76138;SDS011;65138;50.946;7.074;2023-02-01T15:11:54;24.10;;;1.73;;
76138;SDS011;65138;50.946;7.074;2023-02-01T15:14:21;21.23;;;1.95;;
76138;SDS011;65138;50.946;7.074;2023-02-01T15:16:47;14.95;;;1.88;;
76138;SDS011;65138;50.946;7.074;2023-02-01T15:19:18;10.60;;;1.40;;
76138;SDS011;65138;50.946;7.074;2023-02-01T15:21:47;8.05;;;1.15;;
76138;SDS011;65138;50.946;7.074;2023-02-01T15:24:19;10.90;;;1.50;;
76138;SDS011;65138;50.946;7.074;2023-02-01T15:26:50;7.88;;;1.00;;
76138;SDS011;65138;50.946;7.074;2023-02-01T15:29:17;10.30;;;0.90;;
76138;SDS011;65138;50.946;7.074;2023-02-01T15:31:47;7.97;;;1.20;;
76138;SDS011;65138;50.946;7.074;2023-02-01T15:34:15;11.85;;;1.33;;
76138;SDS011;65138;50.946;7.074;2023-02-01T15:36:43;5.57;;;0.77;;
76138;SDS011;65138;50.946;7.074;2023-02-01T15:39:22;4.70;;;0.63;;
76138;SDS011;65138;50.946;7.074;2023-02-01T15:41:56;5.30;;;0.82;;
76138;SDS011;65138;50.946;7.074;2023-02-01T15:44:28;8.52;;;1.30;;
76138;SDS011;65138;50.946;7.074;2023-02-01T15:47:12;6.40;;;0.90;;
76138;SDS011;65138;50.946;7.074;2023-02-01T15:49:41;6.07;;;0.93;;
76138;SDS011;65138;50.946;7.074;2023-02-01T15:55:05;3.55;;;1.00;;
76138;SDS011;65138;50.946;7.074;2023-02-01T15:57:36;3.95;;;0.55;;
76138;SDS011;65138;50.946;7.074;2023-02-01T16:00:08;3.92;;;1.48;;
76138;SDS011;65138;50.946;7.074;2023-02-01T16:02:54;5.35;;;0.75;;
76138;SDS011;65138;50.946;7.074;2023-02-01T16:05:33;3.80;;;0.80;;
76138;SDS011;65138;50.946;7.074;2023-02-01T16:08:13;4.50;;;0.93;;
76138;SDS011;65138;50.946;7.074;2023-02-01T16:10:48;5.80;;;0.85;;
76138;SDS011;65138;50.946;7.074;2023-02-01T16:13:18;4.45;;;0.98;;
76138;SDS011;65138;50.946;7.074;2023-02-01T16:15:47;3.88;;;0.73;;
76138;SDS011;65138;50.946;7.074;2023-02-01T16:18:13;4.05;;;0.75;;
76138;SDS011;65138;50.946;7.074;2023-02-01T16:20:41;2.65;;;0.77;;
76138;SDS011;65138;50.946;7.074;2023-02-01T16:23:08;4.95;;;1.13;;
76138;SDS011;65138;50.946;7.074;2023-02-01T16:25:35;2.83;;;0.40;;
76138;SDS011;65138;50.946;7.074;2023-02-01T16:28:04;5.45;;;0.60;;
76138;SDS011;65138;50.946;7.074;2023-02-01T16:30:31;4.55;;;0.65;;
76138;SDS011;65138;50.946;7.074;2023-02-01T16:32:58;2.25;;;0.43;;
76138;SDS011;65138;50.946;7.074;2023-02-01T16:35:29;3.80;;;0.50;;
76138;SDS011;65138;50.946;7.074;2023-02-01T16:38:02;3.63;;;0.45;;
76138;SDS011;65138;50.946;7.074;2023-02-01T16:40:34;3.78;;;0.70;;
76138;SDS011;65138;50.946;7.074;2023-02-01T16:43:00;2.45;;;0.60;;
76138;SDS011;65138;50.946;7.074;2023-02-01T16:45:26;4.20;;;0.60;;
76138;SDS011;65138;50.946;7.074;2023-02-01T16:47:53;3.83;;;0.60;;
76138;SDS011;65138;50.946;7.074;2023-02-01T16:50:22;3.95;;;0.73;;
76138;SDS011;65138;50.946;7.074;2023-02-01T16:52:51;4.63;;;1.25;;
76138;SDS011;65138;50.946;7.074;2023-02-01T16:55:18;4.65;;;1.13;;
76138;SDS011;65138;50.946;7.074;2023-02-01T16:57:46;4.05;;;0.77;;
76138;SDS011;65138;50.946;7.074;2023-02-01T17:00:13;4.85;;;1.02;;
76138;SDS011;65138;50.946;7.074;2023-02-01T17:02:46;2.75;;;0.75;;
76138;SDS011;65138;50.946;7.074;2023-02-01T17:05:11;4.85;;;1.00;;
76138;SDS011;65138;50.946;7.074;2023-02-01T17:07:37;5.88;;;0.70;;
76138;SDS011;65138;50.946;7.074;2023-02-01T17:10:09;6.60;;;0.98;;
76138;SDS011;65138;50.946;7.074;2023-02-01T17:12:59;4.72;;;1.27;;
76138;SDS011;65138;50.946;7.074;2023-02-01T17:15:26;6.10;;;1.23;;
76138;SDS011;65138;50.946;7.074;2023-02-01T17:17:58;3.03;;;0.98;;
76138;SDS011;65138;50.946;7.074;2023-02-01T17:20:26;3.42;;;0.77;;
76138;SDS011;65138;50.946;7.074;2023-02-01T17:22:57;5.53;;;0.70;;
76138;SDS011;65138;50.946;7.074;2023-02-01T17:25:23;2.83;;;0.47;;
76138;SDS011;65138;50.946;7.074;2023-02-01T17:27:51;5.18;;;1.02;;
76138;SDS011;65138;50.946;7.074;2023-02-01T17:30:17;4.22;;;0.70;;
76138;SDS011;65138;50.946;7.074;2023-02-01T17:32:42;3.03;;;0.60;;
76138;SDS011;65138;50.946;7.074;2023-02-01T17:35:19;3.97;;;0.70;;
76138;SDS011;65138;50.946;7.074;2023-02-01T17:37:48;5.00;;;0.90;;
76138;SDS011;65138;50.946;7.074;2023-02-01T17:40:15;3.03;;;0.75;;
76138;SDS011;65138;50.946;7.074;2023-02-01T17:42:41;4.38;;;0.88;;
76138;SDS011;65138;50.946;7.074;2023-02-01T17:45:49;4.43;;;0.80;;
76138;SDS011;65138;50.946;7.074;2023-02-01T17:48:01;3.53;;;0.50;;